Time;durP1;ratioP1;P1;durP2;ratioP2;P2;SDS_P1;SDS_P2;PMS_P1;PMS_P2;Temp;Humidity;BMP_temperature;BMP_pressure;BME280_temperature;BME280_humidity;BME280_pressure;Samples;Min_cycle;Max_cycle;Signal;HPM_P1;HPM_P2
2023/05/23 00:00:22;;;;;;;1.20;0.90;;;19.20;76.40;;;;;;6212443;23;20178;-81
2023/05/23 00:02:51;;;;;;;0.47;0.47;;;19.20;76.40;;;;;;6213982;23;20258;-83
2023/05/23 00:05:20;;;;;;;0.67;0.67;;;19.20;76.70;;;;;;6210842;23;20203;-82
2023/05/23 00:07:48;;;;;;;1.57;1.17;;;19.10;76.60;;;;;;6211465;23;20629;-82
2023/05/23 00:10:18;;;;;;;1.07;0.60;;;19.10;76.80;;;;;;6211099;23;20171;-83
2023/05/23 00:12:47;;;;;;;1.23;1.13;;;19.10;77.00;;;;;;6213653;23;20533;-83
2023/05/23 00:15:15;;;;;;;1.20;1.00;;;19.10;76.90;;;;;;6210022;23;20549;-82
2023/05/23 00:17:44;;;;;;;4.93;1.17;;;19.00;76.80;;;;;;6210144;23;20194;-83
2023/05/23 00:20:13;;;;;;;0.67;0.67;;;19.00;76.90;;;;;;6209974;23;20631;-82
2023/05/23 00:22:42;;;;;;;1.23;0.80;;;19.00;76.90;;;;;;6206294;23;20254;-85
2023/05/23 00:25:11;;;;;;;1.43;0.80;;;19.00;77.10;;;;;;6208357;23;20182;-82
2023/05/23 00:27:40;;;;;;;0.50;0.47;;;19.00;77.20;;;;;;6208908;23;20209;-84
2023/05/23 00:30:09;;;;;;;1.63;0.93;;;19.00;77.20;;;;;;6211323;23;20171;-84
2023/05/23 00:32:37;;;;;;;0.63;0.57;;;18.90;77.10;;;;;;6210854;23;20167;-82
2023/05/23 00:35:07;;;;;;;0.70;0.70;;;18.90;77.20;;;;;;6211878;23;20171;-82
2023/05/23 00:37:35;;;;;;;2.63;0.53;;;18.90;77.30;;;;;;6211933;23;20195;-82
2023/05/23 00:40:04;;;;;;;1.00;0.70;;;18.90;77.40;;;;;;6211600;23;20171;-82
2023/05/23 00:42:33;;;;;;;2.10;0.70;;;18.90;77.50;;;;;;6212446;23;20211;-82
2023/05/23 00:45:03;;;;;;;0.53;0.43;;;18.90;77.70;;;;;;6210571;23;20241;-82
2023/05/23 00:47:32;;;;;;;1.60;1.10;;;18.80;77.80;;;;;;6187570;23;20156;-83
2023/05/23 00:50:01;;;;;;;0.50;0.50;;;18.80;78.00;;;;;;6211628;23;20175;-84
2023/05/23 00:52:29;;;;;;;1.30;0.97;;;18.80;78.00;;;;;;6211287;23;20179;-85
2023/05/23 00:54:58;;;;;;;0.93;0.70;;;18.80;77.90;;;;;;6210196;23;20187;-82
2023/05/23 00:57:27;;;;;;;0.40;0.40;;;18.80;77.90;;;;;;6212441;23;20167;-83
2023/05/23 00:59:56;;;;;;;0.50;0.50;;;18.70;77.90;;;;;;6212090;23;20514;-84
2023/05/23 01:02:27;;;;;;;1.23;0.73;;;18.70;77.80;;;;;;6212805;23;20480;-84
2023/05/23 01:04:56;;;;;;;1.03;0.87;;;18.70;78.00;;;;;;6212637;23;20182;-83
2023/05/23 01:07:25;;;;;;;1.43;0.50;;;18.70;77.90;;;;;;6185209;23;20171;-83
2023/05/23 01:09:54;;;;;;;1.00;0.70;;;18.70;78.30;;;;;;6212905;23;20167;-82
2023/05/23 01:12:31;;;;;;;1.20;0.67;;;18.60;78.40;;;;;;6185158;23;20233;-84
2023/05/23 01:15:05;;;;;;;0.77;0.70;;;18.60;78.40;;;;;;6214448;23;20182;-82
2023/05/23 01:17:41;;;;;;;0.77;0.57;;;18.60;78.40;;;;;;6212896;23;20159;-82
2023/05/23 01:20:12;;;;;;;1.83;0.97;;;18.60;78.40;;;;;;6210156;23;20251;-84
2023/05/23 01:23:25;;;;;;;0.77;0.60;;;18.60;78.50;;;;;;6209576;23;20167;-83
2023/05/23 01:26:10;;;;;;;1.27;0.97;;;18.50;78.50;;;;;;6210586;23;20171;-81
2023/05/23 01:28:46;;;;;;;3.90;1.17;;;18.50;78.40;;;;;;6213321;23;20209;-81
2023/05/23 01:31:17;;;;;;;1.47;1.03;;;18.50;78.60;;;;;;6188466;23;20159;-81
2023/05/23 01:33:49;;;;;;;1.00;0.90;;;18.50;78.60;;;;;;6212943;23;20807;-82
2023/05/23 01:36:18;;;;;;;1.87;0.80;;;18.50;78.80;;;;;;6213252;23;20160;-81
2023/05/23 01:38:46;;;;;;;0.30;0.30;;;18.40;78.90;;;;;;6185931;23;20203;-81
2023/05/23 01:41:15;;;;;;;0.77;0.77;;;18.40;79.00;;;;;;6212311;23;20485;-84
2023/05/23 01:43:45;;;;;;;0.50;0.50;;;18.40;79.10;;;;;;6211244;23;20171;-82
2023/05/23 01:46:14;;;;;;;1.07;0.97;;;18.40;79.00;;;;;;6212626;23;20176;-84
2023/05/23 01:48:43;;;;;;;0.63;0.63;;;18.30;78.90;;;;;;6211188;23;20557;-83
2023/05/23 01:51:12;;;;;;;0.50;0.50;;;18.30;78.80;;;;;;6211461;23;20537;-83
2023/05/23 01:53:41;;;;;;;0.50;0.50;;;18.30;78.90;;;;;;6209473;23;20878;-81
2023/05/23 01:56:10;;;;;;;0.73;0.63;;;18.30;78.80;;;;;;6211750;23;20167;-82
2023/05/23 01:58:39;;;;;;;1.20;1.10;;;18.20;78.80;;;;;;6184964;23;20267;-83
2023/05/23 02:01:09;;;;;;;0.80;0.60;;;18.20;78.80;;;;;;6211981;23;20217;-83
2023/05/23 02:03:38;;;;;;;1.37;0.93;;;18.20;78.80;;;;;;6210874;23;20156;-82
2023/05/23 02:06:07;;;;;;;0.63;0.63;;;18.20;78.80;;;;;;6210588;23;20167;-82
2023/05/23 02:08:35;;;;;;;0.60;0.60;;;18.20;79.00;;;;;;6210973;23;20242;-83
2023/05/23 02:11:04;;;;;;;17.37;1.80;;;18.20;79.30;;;;;;6212013;23;20168;-82
2023/05/23 02:13:32;;;;;;;3.30;1.60;;;18.20;79.30;;;;;;6184360;23;20512;-82
2023/05/23 02:16:02;;;;;;;0.63;0.63;;;18.10;79.30;;;;;;6211096;23;20576;-83
2023/05/23 02:18:32;;;;;;;0.53;0.43;;;18.10;79.40;;;;;;6211169;23;20371;-82
2023/05/23 02:21:01;;;;;;;0.80;0.80;;;18.10;79.40;;;;;;6210743;23;20174;-82
2023/05/23 02:23:30;;;;;;;2.00;0.90;;;18.10;79.50;;;;;;6211266;23;20274;-83
2023/05/23 02:25:59;;;;;;;2.00;0.63;;;18.10;79.40;;;;;;6210522;23;20632;-83
2023/05/23 02:28:27;;;;;;;0.80;0.80;;;18.10;79.60;;;;;;6184640;23;20167;-82
2023/05/23 02:30:56;;;;;;;1.93;1.27;;;18.00;79.60;;;;;;6183381;23;20177;-82
2023/05/23 02:33:25;;;;;;;1.30;0.80;;;18.00;79.70;;;;;;6210165;23;20163;-84
2023/05/23 02:35:55;;;;;;;1.00;0.63;;;18.00;80.00;;;;;;6210035;23;20654;-83
2023/05/23 02:38:25;;;;;;;1.30;0.90;;;18.00;80.20;;;;;;6211856;23;20171;-83
2023/05/23 02:40:56;;;;;;;0.57;0.57;;;17.90;80.40;;;;;;6210188;23;20183;-82
2023/05/23 02:43:24;;;;;;;1.00;0.50;;;17.90;80.40;;;;;;6209991;23;20213;-83
2023/05/23 02:45:53;;;;;;;0.70;0.60;;;17.90;80.40;;;;;;6208903;23;20177;-82
2023/05/23 02:48:21;;;;;;;1.43;0.90;;;17.90;80.60;;;;;;6209977;23;20171;-83
2023/05/23 02:50:50;;;;;;;1.23;0.87;;;17.90;80.80;;;;;;6209947;23;20175;-83
2023/05/23 02:53:19;;;;;;;5.50;1.43;;;17.90;80.80;;;;;;6212709;23;20195;-84
2023/05/23 02:55:48;;;;;;;1.00;0.90;;;17.90;80.70;;;;;;6209983;23;20178;-83
2023/05/23 02:58:16;;;;;;;0.90;0.87;;;17.90;80.60;;;;;;6208990;23;20632;-85
2023/05/23 03:00:45;;;;;;;1.17;0.73;;;17.90;80.70;;;;;;6209487;23;20532;-84
2023/05/23 03:03:13;;;;;;;1.00;0.90;;;17.90;80.70;;;;;;6208097;23;20171;-83
2023/05/23 03:05:41;;;;;;;0.57;0.57;;;17.80;80.50;;;;;;6208780;23;20171;-83
2023/05/23 03:08:10;;;;;;;0.77;0.70;;;17.90;80.90;;;;;;6209116;23;20163;-83
2023/05/23 03:10:40;;;;;;;0.70;0.70;;;17.80;80.80;;;;;;6210078;23;20171;-84
2023/05/23 03:13:08;;;;;;;0.63;0.63;;;17.90;80.90;;;;;;6210875;23;20171;-82
2023/05/23 03:15:37;;;;;;;0.73;0.70;;;17.90;80.90;;;;;;6208697;23;20290;-84
2023/05/23 03:18:05;;;;;;;0.73;0.73;;;17.90;80.90;;;;;;6209292;23;20228;-83
2023/05/23 03:20:34;;;;;;;0.90;0.70;;;17.90;81.10;;;;;;6208308;23;20652;-83
2023/05/23 03:23:03;;;;;;;1.27;0.87;;;17.90;81.20;;;;;;6207395;23;20179;-83
2023/05/23 03:25:31;;;;;;;1.43;1.27;;;17.80;81.00;;;;;;6208461;23;20221;-83
2023/05/23 03:28:01;;;;;;;0.40;0.40;;;17.80;81.10;;;;;;6211336;23;20229;-84
2023/05/23 03:30:30;;;;;;;0.73;0.70;;;17.80;80.90;;;;;;6208699;23;20175;-83
2023/05/23 03:32:58;;;;;;;1.40;0.50;;;17.90;80.90;;;;;;6209772;23;20178;-83
2023/05/23 03:35:27;;;;;;;1.77;0.80;;;17.90;80.90;;;;;;6210050;23;20286;-83
2023/05/23 03:37:55;;;;;;;1.47;0.97;;;17.90;80.80;;;;;;6211151;23;20175;-84
2023/05/23 03:40:24;;;;;;;1.73;0.60;;;17.90;80.70;;;;;;6210218;23;20191;-84
2023/05/23 03:43:04;;;;;;;0.73;0.73;;;17.90;80.80;;;;;;6211099;23;20171;-82
2023/05/23 03:45:33;;;;;;;1.17;0.83;;;17.90;80.70;;;;;;6211149;23;20163;-84
2023/05/23 03:48:01;;;;;;;0.90;0.90;;;18.00;80.80;;;;;;6211075;23;20171;-83
2023/05/23 03:50:30;;;;;;;0.53;0.53;;;18.00;80.80;;;;;;6207828;23;20198;-82
2023/05/23 03:52:59;;;;;;;0.47;0.47;;;18.00;80.70;;;;;;6209050;23;20262;-83
2023/05/23 03:55:30;;;;;;;0.60;0.60;;;18.00;80.60;;;;;;6210780;23;20156;-82
2023/05/23 03:57:59;;;;;;;0.70;0.60;;;18.10;80.70;;;;;;6212075;23;20459;-83
2023/05/23 04:00:29;;;;;;;3.60;1.30;;;18.10;80.60;;;;;;6183026;23;20683;-82
2023/05/23 04:02:58;;;;;;;0.67;0.67;;;18.10;80.50;;;;;;6212080;23;20672;-83
2023/05/23 04:05:28;;;;;;;3.93;0.90;;;18.20;80.50;;;;;;6209324;23;20171;-82
2023/05/23 04:08:00;;;;;;;1.93;0.63;;;18.20;80.50;;;;;;6211469;23;20254;-84
2023/05/23 04:10:28;;;;;;;1.53;0.97;;;18.20;80.50;;;;;;6182672;23;20179;-85
2023/05/23 04:12:57;;;;;;;0.50;0.50;;;18.30;80.60;;;;;;6209042;23;20167;-83
2023/05/23 04:15:26;;;;;;;1.17;1.07;;;18.30;80.60;;;;;;6209404;23;20231;-84
2023/05/23 04:17:56;;;;;;;0.70;0.70;;;18.40;80.60;;;;;;6211544;23;20175;-83
2023/05/23 04:20:25;;;;;;;1.87;1.13;;;18.40;80.60;;;;;;6212220;23;20198;-82
2023/05/23 04:22:53;;;;;;;0.63;0.60;;;18.40;80.60;;;;;;6211318;23;20171;-83
2023/05/23 04:25:23;;;;;;;2.00;1.07;;;18.50;80.70;;;;;;6214192;23;20174;-84
2023/05/23 04:27:53;;;;;;;3.10;1.40;;;18.50;80.60;;;;;;6209558;23;20169;-83
2023/05/23 04:30:22;;;;;;;0.77;0.73;;;18.60;80.50;;;;;;6211568;23;20217;-83
2023/05/23 04:32:51;;;;;;;4.43;0.97;;;18.60;80.30;;;;;;6208041;23;20167;-82
2023/05/23 04:35:21;;;;;;;0.60;0.60;;;18.60;80.20;;;;;;6208263;23;20634;-82
2023/05/23 04:37:55;;;;;;;2.00;1.37;;;18.70;80.40;;;;;;6210062;23;20163;-81
2023/05/23 04:40:23;;;;;;;0.80;0.80;;;18.70;80.50;;;;;;6212323;23;20706;-83
2023/05/23 04:42:52;;;;;;;1.37;1.03;;;18.80;80.40;;;;;;6213416;23;20163;-84
2023/05/23 04:45:21;;;;;;;1.50;1.17;;;18.80;80.30;;;;;;6211850;23;20173;-83
2023/05/23 04:47:49;;;;;;;0.80;0.57;;;18.80;80.10;;;;;;6210252;23;20173;-82
2023/05/23 04:50:20;;;;;;;0.97;0.90;;;18.90;80.10;;;;;;6211365;23;21034;-83
2023/05/23 04:52:49;;;;;;;1.80;0.90;;;18.90;79.90;;;;;;6209785;23;20156;-80
2023/05/23 04:55:18;;;;;;;1.83;0.93;;;19.00;79.80;;;;;;6150559;23;20207;-83
2023/05/23 04:57:47;;;;;;;1.73;0.80;;;19.10;79.80;;;;;;6151799;23;20554;-83
2023/05/23 05:00:16;;;;;;;0.83;0.67;;;19.10;79.80;;;;;;6152212;23;20522;-83
2023/05/23 05:02:45;;;;;;;0.63;0.63;;;19.20;80.70;;;;;;6150876;23;20233;-82
2023/05/23 05:05:13;;;;;;;0.60;0.47;;;19.20;79.90;;;;;;6150829;23;20176;-82
2023/05/23 05:07:44;;;;;;;1.00;0.73;;;19.30;79.80;;;;;;6150322;23;20184;-83
2023/05/23 05:10:15;;;;;;;2.93;1.47;;;19.40;79.80;;;;;;6149754;23;20165;-82
2023/05/23 05:12:45;;;;;;;1.90;0.47;;;19.40;79.70;;;;;;6152601;23;20248;-81
2023/05/23 05:15:14;;;;;;;1.07;0.87;;;19.50;79.70;;;;;;6151357;23;20165;-82
2023/05/23 05:17:42;;;;;;;0.50;0.50;;;19.50;79.70;;;;;;6151998;23;20637;-82
2023/05/23 05:20:11;;;;;;;1.30;0.90;;;19.60;79.60;;;;;;6149061;23;20267;-82
2023/05/23 05:22:41;;;;;;;0.77;0.60;;;19.70;79.60;;;;;;6142246;23;20188;-82
2023/05/23 05:25:11;;;;;;;0.77;0.43;;;19.70;79.50;;;;;;6147603;23;20486;-81
2023/05/23 05:27:40;;;;;;;1.37;1.07;;;19.80;79.40;;;;;;6150569;23;20171;-84
2023/05/23 05:30:10;;;;;;;2.03;1.10;;;19.80;79.60;;;;;;6151846;23;20176;-85
2023/05/23 05:32:44;;;;;;;3.63;1.80;;;19.90;79.40;;;;;;6147268;23;20191;-82
2023/05/23 05:35:13;;;;;;;3.03;1.47;;;19.90;79.50;;;;;;6149011;23;20157;-83
2023/05/23 05:37:47;;;;;;;0.80;0.77;;;20.00;79.70;;;;;;6151375;23;20200;-87
2023/05/23 05:40:17;;;;;;;1.13;0.90;;;20.00;79.50;;;;;;6150110;23;20215;-82
2023/05/23 05:42:46;;;;;;;1.87;1.27;;;20.10;79.50;;;;;;6150735;23;20179;-82
2023/05/23 05:45:14;;;;;;;1.20;1.10;;;20.10;79.40;;;;;;6150014;23;20173;-83
2023/05/23 05:47:42;;;;;;;1.90;1.30;;;20.20;79.30;;;;;;6149713;23;20883;-82
2023/05/23 05:50:11;;;;;;;0.73;0.60;;;20.30;79.10;;;;;;6149738;23;20164;-82
2023/05/23 05:52:41;;;;;;;0.43;0.43;;;20.30;78.90;;;;;;6150186;23;20556;-83
2023/05/23 05:55:11;;;;;;;1.10;0.73;;;20.40;78.90;;;;;;6208230;23;20195;-82
2023/05/23 05:57:41;;;;;;;1.13;1.03;;;20.40;78.80;;;;;;6210970;23;20205;-84
2023/05/23 06:00:13;;;;;;;0.90;0.70;;;20.50;78.70;;;;;;6209931;23;20656;-82
2023/05/23 06:02:43;;;;;;;4.63;0.93;;;20.60;78.50;;;;;;6210000;23;20494;-83
2023/05/23 06:05:12;;;;;;;0.50;0.50;;;20.70;78.20;;;;;;6210356;23;20229;-81
2023/05/23 06:07:40;;;;;;;0.88;0.85;;;20.80;78.00;;;;;;6208398;23;20238;-82
2023/05/23 06:10:11;;;;;;;2.13;0.90;;;20.90;78.00;;;;;;6211652;23;20856;-81
2023/05/23 06:12:41;;;;;;;0.90;0.85;;;21.00;78.00;;;;;;6207142;23;20624;-83
2023/05/23 06:15:12;;;;;;;0.57;0.57;;;21.10;77.50;;;;;;6210911;23;20210;-83
2023/05/23 06:17:41;;;;;;;1.60;1.15;;;21.10;77.10;;;;;;6211316;23;20163;-82
2023/05/23 06:20:13;;;;;;;2.35;1.33;;;21.20;77.00;;;;;;6208543;23;20171;-82
2023/05/23 06:22:41;;;;;;;1.08;0.85;;;21.30;76.70;;;;;;6208381;23;20206;-83
2023/05/23 06:25:10;;;;;;;4.43;1.75;;;21.40;76.40;;;;;;6206140;23;20177;-83
2023/05/23 06:27:39;;;;;;;0.60;0.60;;;21.50;76.30;;;;;;6209689;23;20163;-82
2023/05/23 06:30:10;;;;;;;0.55;0.55;;;21.60;75.30;;;;;;6209741;23;20178;-83
2023/05/23 06:32:38;;;;;;;0.60;0.50;;;21.70;75.50;;;;;;6209680;23;20242;-82
2023/05/23 06:35:07;;;;;;;0.75;0.70;;;21.70;74.40;;;;;;6207653;23;20262;-83
2023/05/23 06:37:36;;;;;;;0.40;0.40;;;21.80;74.40;;;;;;6211892;23;20229;-84
2023/05/23 06:40:05;;;;;;;1.40;0.82;;;21.80;74.10;;;;;;6211090;23;20171;-85
2023/05/23 06:42:33;;;;;;;0.65;0.65;;;22.00;74.20;;;;;;6207510;23;20278;-81
2023/05/23 06:45:02;;;;;;;0.40;0.40;;;22.10;73.40;;;;;;6209555;23;20174;-81
2023/05/23 06:47:31;;;;;;;0.93;0.47;;;22.20;73.00;;;;;;6210941;23;20172;-82
2023/05/23 06:50:00;;;;;;;0.50;0.50;;;22.30;72.50;;;;;;6211998;23;20190;-82
2023/05/23 06:52:28;;;;;;;1.42;1.05;;;22.40;72.40;;;;;;6210647;23;20171;-82
2023/05/23 06:54:56;;;;;;;1.75;0.60;;;22.40;72.30;;;;;;6211430;23;20523;-82
2023/05/23 06:57:25;;;;;;;0.82;0.82;;;22.50;71.10;;;;;;6209378;23;20217;-82
2023/05/23 06:59:53;;;;;;;0.95;0.93;;;22.60;71.30;;;;;;6211377;23;20171;-81
2023/05/23 07:02:21;;;;;;;0.32;0.32;;;22.60;69.70;;;;;;6211084;23;20199;-81
2023/05/23 07:04:51;;;;;;;0.50;0.50;;;22.70;69.80;;;;;;6209616;23;20175;-82
2023/05/23 07:07:20;;;;;;;2.20;0.65;;;22.70;70.10;;;;;;6210684;23;20217;-82
2023/05/23 07:09:48;;;;;;;1.05;0.60;;;22.80;69.90;;;;;;6206056;23;20177;-80
2023/05/23 07:12:16;;;;;;;0.30;0.30;;;22.90;69.50;;;;;;6208435;23;20171;-80
2023/05/23 07:14:44;;;;;;;1.13;0.65;;;23.00;69.60;;;;;;6208377;23;20502;-80
2023/05/23 07:17:13;;;;;;;0.30;0.30;;;23.10;69.80;;;;;;6213019;23;20555;-81
2023/05/23 07:19:41;;;;;;;0.35;0.35;;;23.20;69.60;;;;;;6209138;23;20233;-80
2023/05/23 07:22:11;;;;;;;1.08;0.70;;;23.30;69.10;;;;;;6210159;23;20195;-82
2023/05/23 07:24:39;;;;;;;0.32;0.32;;;23.30;68.30;;;;;;6211699;23;20167;-81
2023/05/23 07:27:07;;;;;;;0.55;0.55;;;23.40;68.30;;;;;;6209115;23;20178;-82
2023/05/23 07:29:36;;;;;;;0.60;0.50;;;23.40;68.30;;;;;;6207585;23;20168;-81
2023/05/23 07:32:04;;;;;;;0.30;0.30;;;23.40;68.00;;;;;;6212545;23;20190;-82
2023/05/23 07:34:33;;;;;;;1.00;0.70;;;23.60;68.00;;;;;;6210462;23;20241;-81
2023/05/23 07:37:01;;;;;;;0.75;0.50;;;23.60;67.80;;;;;;6211983;23;20221;-80
2023/05/23 07:39:31;;;;;;;0.77;0.63;;;23.60;66.90;;;;;;6208537;23;20167;-81
2023/05/23 07:41:59;;;;;;;0.40;0.40;;;23.70;67.20;;;;;;6211164;23;20233;-82
2023/05/23 07:44:29;;;;;;;1.42;0.90;;;23.80;66.50;;;;;;6207976;23;20246;-80
2023/05/23 07:46:57;;;;;;;0.30;0.30;;;23.80;66.50;;;;;;6207540;23;20167;-80
2023/05/23 07:49:26;;;;;;;0.45;0.45;;;23.90;65.80;;;;;;6209908;23;20167;-82
2023/05/23 07:51:54;;;;;;;0.40;0.40;;;24.00;65.90;;;;;;6208033;23;20171;-81
2023/05/23 07:54:23;;;;;;;0.68;0.68;;;24.00;65.70;;;;;;6211221;23;20190;-80
2023/05/23 07:56:53;;;;;;;0.75;0.40;;;24.00;64.90;;;;;;6209509;23;20933;-81
2023/05/23 07:59:22;;;;;;;0.90;0.70;;;24.10;64.90;;;;;;6210219;23;20222;-81
2023/05/23 08:01:50;;;;;;;0.38;0.38;;;24.10;64.30;;;;;;6209999;23;20660;-81
2023/05/23 08:04:19;;;;;;;0.65;0.50;;;24.20;64.40;;;;;;6208378;23;20159;-81
2023/05/23 08:06:47;;;;;;;1.02;0.57;;;24.30;64.70;;;;;;6211465;23;20620;-81
2023/05/23 08:09:31;;;;;;;0.80;0.70;;;24.30;64.40;;;;;;6211072;23;20162;-80
2023/05/23 08:12:02;;;;;;;1.40;0.88;;;24.40;63.50;;;;;;6211862;23;20171;-82
2023/05/23 08:14:31;;;;;;;0.95;0.65;;;24.40;62.30;;;;;;6211365;23;20238;-81
2023/05/23 08:17:16;;;;;;;0.57;0.50;;;24.40;62.10;;;;;;6214212;23;20166;-82
2023/05/23 08:19:45;;;;;;;1.27;0.80;;;24.50;62.20;;;;;;6205034;23;20171;-81
2023/05/23 08:22:13;;;;;;;1.08;0.68;;;24.50;62.40;;;;;;6211130;23;20201;-82
2023/05/23 08:24:42;;;;;;;1.55;1.10;;;24.60;62.00;;;;;;6210652;23;20676;-80
2023/05/23 08:27:12;;;;;;;0.55;0.55;;;24.60;61.90;;;;;;6210186;23;20171;-81
2023/05/23 08:29:41;;;;;;;0.30;0.30;;;24.70;61.60;;;;;;6210491;23;20192;-81
2023/05/23 08:32:10;;;;;;;0.70;0.57;;;24.70;61.20;;;;;;6209131;23;20283;-83
2023/05/23 08:34:38;;;;;;;0.47;0.47;;;24.80;61.10;;;;;;6209464;23;20171;-83
2023/05/23 08:37:06;;;;;;;0.50;0.30;;;24.90;61.20;;;;;;6211183;23;20167;-82
2023/05/23 08:39:35;;;;;;;0.40;0.40;;;24.80;59.10;;;;;;6209300;23;20991;-82
2023/05/23 08:42:04;;;;;;;0.35;0.35;;;25.00;59.80;;;;;;6211631;23;20191;-84
2023/05/23 08:44:33;;;;;;;0.98;0.85;;;24.90;58.20;;;;;;6210608;23;20173;-82
2023/05/23 08:47:05;;;;;;;3.83;1.23;;;25.00;57.90;;;;;;6209639;23;20178;-83
2023/05/23 08:49:34;;;;;;;0.50;0.50;;;25.10;58.50;;;;;;6210260;23;20238;-81
2023/05/23 08:52:03;;;;;;;0.50;0.50;;;25.20;58.20;;;;;;6210790;23;20211;-82
2023/05/23 08:54:32;;;;;;;0.50;0.50;;;25.10;57.60;;;;;;6211277;23;20574;-81
2023/05/23 08:57:01;;;;;;;0.52;0.52;;;25.20;58.20;;;;;;6207263;23;20496;-82
2023/05/23 08:59:31;;;;;;;0.57;0.47;;;25.20;56.10;;;;;;6208826;23;20175;-82
2023/05/23 09:02:07;;;;;;;1.00;0.65;;;25.30;56.60;;;;;;6210049;23;20254;-84
2023/05/23 09:04:35;;;;;;;0.88;0.63;;;25.40;57.00;;;;;;6210957;23;20163;-82
2023/05/23 09:07:05;;;;;;;2.25;0.88;;;25.30;56.20;;;;;;6208833;23;20964;-82
2023/05/23 09:09:33;;;;;;;1.63;1.05;;;25.40;56.50;;;;;;6209167;23;20167;-81
2023/05/23 09:12:02;;;;;;;1.63;0.73;;;25.50;56.80;;;;;;6211928;23;20171;-83
2023/05/23 09:14:31;;;;;;;2.50;0.77;;;25.60;57.20;;;;;;6209440;23;20257;-83
2023/05/23 09:17:04;;;;;;;0.68;0.50;;;25.60;57.20;;;;;;6210648;23;20210;-82
2023/05/23 09:19:32;;;;;;;0.80;0.80;;;25.70;57.30;;;;;;6210120;23;20620;-82
2023/05/23 09:22:03;;;;;;;0.35;0.35;;;25.70;57.40;;;;;;6209611;23;20167;-82
2023/05/23 09:24:35;;;;;;;2.08;0.93;;;25.70;57.30;;;;;;6210088;23;20191;-82
2023/05/23 09:27:06;;;;;;;1.40;0.43;;;25.80;57.10;;;;;;6212512;23;20609;-82
2023/05/23 09:29:38;;;;;;;1.38;0.95;;;25.80;57.50;;;;;;6208230;23;20235;-82
2023/05/23 09:32:13;;;;;;;1.13;0.77;;;25.90;57.60;;;;;;6207868;23;20171;-83
2023/05/23 09:34:42;;;;;;;0.55;0.45;;;25.90;57.70;;;;;;6210650;23;20540;-83
2023/05/23 09:37:17;;;;;;;1.52;0.80;;;25.90;57.50;;;;;;6204669;23;20204;-81
2023/05/23 09:39:49;;;;;;;2.90;0.50;;;26.00;57.50;;;;;;6208265;23;20221;-82
2023/05/23 09:42:22;;;;;;;1.92;0.98;;;26.00;56.40;;;;;;6208661;23;20217;-83
2023/05/23 09:44:51;;;;;;;0.88;0.70;;;26.10;56.80;;;;;;6211440;23;20675;-83
2023/05/23 09:47:21;;;;;;;0.55;0.40;;;26.00;55.50;;;;;;6212511;23;20250;-83
2023/05/23 09:49:50;;;;;;;0.82;0.82;;;26.10;56.00;;;;;;6209411;23;20616;-82
2023/05/23 09:52:19;;;;;;;0.93;0.75;;;26.10;56.00;;;;;;6211481;23;20235;-82
2023/05/23 09:54:47;;;;;;;0.82;0.70;;;26.10;56.40;;;;;;6207738;23;20233;-82
2023/05/23 09:57:17;;;;;;;0.50;0.50;;;26.10;56.90;;;;;;6212071;23;20246;-82
2023/05/23 09:59:53;;;;;;;0.40;0.40;;;26.10;57.10;;;;;;6209406;23;20171;-82
2023/05/23 10:02:56;;;;;;;0.90;0.75;;;26.20;56.70;;;;;;6208310;23;20163;-82
2023/05/23 10:05:34;;;;;;;0.30;0.30;;;26.20;56.10;;;;;;6205140;23;20249;-83
2023/05/23 10:08:09;;;;;;;0.50;0.40;;;26.40;56.30;;;;;;6212815;23;20162;-81
2023/05/23 10:11:20;;;;;;;0.70;0.70;;;26.40;56.00;;;;;;6210798;23;20186;-82
2023/05/23 10:13:52;;;;;;;0.45;0.45;;;26.50;56.70;;;;;;6211384;23;20167;-82
2023/05/23 10:16:27;;;;;;;0.82;0.50;;;26.60;56.50;;;;;;6210996;23;20209;-83
2023/05/23 10:19:01;;;;;;;0.55;0.52;;;26.60;56.00;;;;;;6212643;23;20170;-85
2023/05/23 10:21:33;;;;;;;0.82;0.82;;;26.70;56.20;;;;;;6209291;23;20191;-82
2023/05/23 10:24:03;;;;;;;1.85;0.95;;;26.80;54.60;;;;;;6211596;23;20206;-80
2023/05/23 10:26:32;;;;;;;0.93;0.52;;;26.80;53.60;;;;;;6212495;23;21020;-82
2023/05/23 10:29:01;;;;;;;0.50;0.50;;;26.90;53.70;;;;;;6215371;23;20175;-83
2023/05/23 10:31:30;;;;;;;1.30;0.60;;;27.00;53.90;;;;;;6213782;23;20513;-81
2023/05/23 10:34:08;;;;;;;2.22;1.50;;;27.00;54.20;;;;;;6212108;23;20178;-81
2023/05/23 10:36:45;;;;;;;0.73;0.47;;;27.10;54.70;;;;;;6208808;23;20186;-82
2023/05/23 10:39:21;;;;;;;0.75;0.63;;;27.20;54.70;;;;;;6210656;23;20159;-83
2023/05/23 10:41:55;;;;;;;0.68;0.50;;;27.30;54.30;;;;;;6209372;23;20206;-84
2023/05/23 10:44:27;;;;;;;2.50;0.47;;;27.40;53.90;;;;;;6214272;23;20209;-83
2023/05/23 10:46:59;;;;;;;3.15;1.15;;;27.40;54.10;;;;;;6213177;23;20570;-84
2023/05/23 10:49:40;;;;;;;0.65;0.55;;;27.40;51.80;;;;;;6211077;23;20628;-83
2023/05/23 10:52:10;;;;;;;1.02;0.65;;;27.40;52.60;;;;;;6212670;23;20520;-83
2023/05/23 10:54:44;;;;;;;0.40;0.40;;;27.40;52.70;;;;;;6212066;23;20205;-83
2023/05/23 10:57:16;;;;;;;0.50;0.50;;;27.50;52.70;;;;;;6210241;23;20967;-82
2023/05/23 10:59:45;;;;;;;3.00;0.82;;;27.50;52.50;;;;;;6209340;23;20226;-82
2023/05/23 11:02:15;;;;;;;1.23;0.82;;;27.60;53.20;;;;;;6210906;23;20655;-82
2023/05/23 11:04:47;;;;;;;0.47;0.43;;;27.60;52.90;;;;;;6210705;23;20195;-80
2023/05/23 11:07:36;;;;;;;1.20;0.90;;;27.70;53.00;;;;;;6208949;23;20187;-82
2023/05/23 11:10:09;;;;;;;1.58;0.95;;;27.70;52.70;;;;;;6205452;23;20254;-83
2023/05/23 11:12:41;;;;;;;1.35;1.05;;;27.80;53.20;;;;;;6211528;23;20159;-85
2023/05/23 11:15:28;;;;;;;0.68;0.68;;;27.90;53.10;;;;;;6212837;23;20221;-82
2023/05/23 11:17:57;;;;;;;1.10;0.65;;;27.70;51.70;;;;;;6211584;23;20159;-83
2023/05/23 11:20:30;;;;;;;0.45;0.45;;;27.80;51.50;;;;;;6209253;23;20167;-83
2023/05/23 11:23:01;;;;;;;1.20;0.60;;;27.60;51.90;;;;;;6210302;23;20167;-84
2023/05/23 11:25:42;;;;;;;0.38;0.30;;;27.70;53.20;;;;;;6204743;23;20238;-83
2023/05/23 11:28:11;;;;;;;0.50;0.50;;;27.70;51.20;;;;;;6211409;23;20171;-83
2023/05/23 11:30:40;;;;;;;0.85;0.55;;;27.70;50.10;;;;;;6212529;23;20174;-84
2023/05/23 11:33:15;;;;;;;1.23;0.40;;;27.70;50.70;;;;;;6214922;23;20171;-83
2023/05/23 11:35:50;;;;;;;1.27;0.70;;;27.80;51.00;;;;;;6213153;23;20238;-84
2023/05/23 11:38:18;;;;;;;1.52;1.23;;;27.90;50.90;;;;;;6213073;23;20241;-82
2023/05/23 11:40:48;;;;;;;0.40;0.40;;;27.90;50.70;;;;;;6211543;23;20245;-84
2023/05/23 11:43:18;;;;;;;0.50;0.50;;;27.90;50.00;;;;;;6211888;23;20254;-84
2023/05/23 11:45:47;;;;;;;0.85;0.57;;;28.00;49.90;;;;;;6211799;23;20162;-83
2023/05/23 11:48:16;;;;;;;1.42;0.60;;;28.00;50.00;;;;;;6214969;23;20496;-83
2023/05/23 11:50:48;;;;;;;5.63;0.70;;;28.00;49.50;;;;;;6212162;23;20171;-82
2023/05/23 11:53:20;;;;;;;2.50;0.75;;;28.10;49.80;;;;;;6213981;23;20199;-83
2023/05/23 11:55:52;;;;;;;0.90;0.60;;;28.10;49.70;;;;;;6212581;23;20171;-83
2023/05/23 11:58:21;;;;;;;0.98;0.55;;;28.20;50.30;;;;;;6212337;23;20167;-83
2023/05/23 12:00:50;;;;;;;0.45;0.45;;;28.20;50.90;;;;;;6213351;23;20670;-83
2023/05/23 12:03:22;;;;;;;0.57;0.40;;;28.20;50.90;;;;;;6213683;23;20191;-84
2023/05/23 12:05:52;;;;;;;0.68;0.60;;;28.10;51.10;;;;;;6212309;23;20185;-83
2023/05/23 12:08:21;;;;;;;1.10;0.40;;;28.10;51.30;;;;;;6213377;23;20708;-83
2023/05/23 12:10:51;;;;;;;0.75;0.47;;;28.00;51.50;;;;;;6210723;23;20246;-83
2023/05/23 12:13:20;;;;;;;0.30;0.30;;;28.10;51.50;;;;;;6214403;23;20234;-83
2023/05/23 12:15:48;;;;;;;0.43;0.43;;;28.10;51.60;;;;;;6213591;23;20175;-84
2023/05/23 12:18:20;;;;;;;1.00;0.77;;;28.10;51.70;;;;;;6207942;23;20229;-84
2023/05/23 12:20:50;;;;;;;2.13;0.77;;;28.20;52.20;;;;;;6211453;23;20156;-84
2023/05/23 12:23:22;;;;;;;0.60;0.60;;;28.30;52.00;;;;;;6212148;23;20178;-84
2023/05/23 12:25:52;;;;;;;1.02;0.73;;;28.30;51.50;;;;;;6212855;23;20191;-83
2023/05/23 12:28:21;;;;;;;0.95;0.60;;;28.40;51.30;;;;;;6212441;23;20496;-84
2023/05/23 12:30:50;;;;;;;3.75;0.73;;;28.40;51.40;;;;;;6210918;23;20502;-85
2023/05/23 12:33:20;;;;;;;0.50;0.50;;;28.40;50.40;;;;;;6213258;23;20190;-83
2023/05/23 12:35:53;;;;;;;0.82;0.73;;;28.40;50.60;;;;;;6212918;23;20206;-85
2023/05/23 12:38:25;;;;;;;7.07;1.05;;;28.60;50.40;;;;;;6214124;23;20190;-81
2023/05/23 12:41:08;;;;;;;0.52;0.38;;;28.60;50.80;;;;;;6213588;23;20173;-83
2023/05/23 12:43:39;;;;;;;1.05;0.70;;;28.70;50.70;;;;;;6213809;23;20233;-82
2023/05/23 12:46:08;;;;;;;1.63;0.88;;;28.80;50.80;;;;;;6211076;23;20189;-86
2023/05/23 12:55:22;;;;;;;1.15;0.70;;;28.90;49.30;;;;;;6093702;23;20742;-89
2023/05/23 13:09:15;;;;;;;1.42;0.57;;;28.90;49.70;;;;;;6179815;23;20171;-88
2023/05/23 13:36:00;;;;;;;0.63;0.40;;;29.50;49.80;;;;;;6118815;23;20177;-88
2023/05/23 13:38:44;;;;;;;0.73;0.73;;;29.50;48.50;;;;;;6177877;22;20658;-86
2023/05/23 13:41:16;;;;;;;0.57;0.57;;;29.60;48.90;;;;;;6243773;23;20217;-89
2023/05/23 13:43:56;;;;;;;2.67;1.33;;;29.60;49.20;;;;;;6244560;23;20453;-92
2023/05/23 13:46:25;;;;;;;0.55;0.55;;;29.40;47.90;;;;;;6245042;23;20170;-92